Terminal Aerodrome Forecast
Issued by NWS

Home | Current Version | Previous Version | Text Only | Print | Product List | Glossary On
Versions: 1 2 3 4 5 6 7 8 9 10 11 12 13
000
FTUS45 KVEF 252300
TAFEED
TAF
KEED 252320Z 2600/2624 01015G25KT P6SM OVC250
     FM260200 33010KT P6SM OVC250
     FM261000 31008KT P6SM SCT150 OVC200
     FM261800 12007KT P6SM VCSH SCT060 SCT100 OVC150=

USA.gov is the U.S. government's official web portal to all federal, state and local government web resources and services.